createdAt,value
2022-08-17T00:01:31.396Z,10.02
2022-08-17T00:04:19.036Z,11.13
2022-08-17T00:06:46.077Z,13.57
2022-08-17T00:09:19.026Z,16.50
2022-08-17T00:12:34.845Z,16.00
2022-08-17T00:14:35.008Z,15.60
2022-08-17T00:17:03.714Z,13.48
2022-08-17T00:19:30.381Z,17.70
2022-08-17T00:22:33.882Z,14.90
2022-08-17T00:24:47.273Z,16.42
2022-08-17T00:27:13.829Z,17.05
2022-08-17T00:29:40.539Z,21.15
2022-08-17T00:33:12.434Z,13.75
2022-08-17T00:34:53.814Z,19.20
2022-08-17T00:37:20.396Z,16.33
2022-08-17T00:39:46.933Z,20.35
2022-08-17T00:42:18.956Z,19.02
2022-08-17T00:44:46.177Z,16.92
2022-08-17T00:47:12.713Z,19.13
2022-08-17T00:49:39.569Z,21.10
2022-08-17T00:52:15.524Z,21.60
2022-08-17T00:54:44.876Z,17.70
2022-08-17T00:57:34.424Z,14.65
2022-08-17T01:00:08.940Z,14.05
2022-08-17T01:02:41.762Z,16.38
2022-08-17T01:05:16.362Z,14.25
2022-08-17T01:07:47.545Z,16.75
2022-08-17T01:10:58.269Z,13.48
2022-08-17T01:13:02.747Z,12.85
2022-08-17T01:15:36.165Z,14.18
2022-08-17T01:18:05.392Z,11.25
2022-08-17T01:20:32.503Z,12.25
2022-08-17T01:23:18.479Z,14.10
2022-08-17T01:25:54.192Z,10.40
2022-08-17T01:28:52.832Z,14.70
2022-08-17T01:31:09.708Z,12.60
2022-08-17T01:33:36.680Z,13.60
2022-08-17T01:36:04.987Z,12.30
2022-08-17T01:38:31.910Z,15.75
2022-08-17T01:41:03.200Z,16.75
2022-08-17T01:43:43.565Z,16.30
2022-08-17T01:46:16.826Z,17.67
2022-08-17T01:48:47.255Z,13.95
2022-08-17T01:51:15.510Z,16.05
2022-08-17T01:53:47.303Z,15.02
2022-08-17T01:56:18.245Z,14.10
2022-08-17T01:58:45.779Z,15.48
2022-08-17T02:01:14.760Z,17.30
2022-08-17T02:03:41.987Z,12.70
2022-08-17T02:06:27.690Z,13.73
2022-08-17T02:09:03.153Z,13.75
2022-08-17T02:11:32.388Z,13.55
2022-08-17T02:14:03.202Z,12.13
2022-08-17T02:16:37.564Z,14.80
2022-08-17T02:19:07.794Z,12.52
2022-08-17T02:21:36.120Z,12.68
2022-08-17T02:24:03.706Z,15.88
2022-08-17T02:26:30.162Z,12.18
2022-08-17T02:28:56.861Z,11.90
2022-08-17T02:31:23.419Z,13.93
2022-08-17T02:34:00.361Z,17.70
2022-08-17T02:36:34.440Z,14.38
2022-08-17T02:39:04.967Z,11.13
2022-08-17T02:41:31.491Z,13.55
2022-08-17T02:43:58.657Z,11.13
2022-08-17T02:46:25.532Z,14.57
2022-08-17T02:48:52.054Z,16.42
2022-08-17T02:51:18.714Z,11.45
2022-08-17T02:53:45.163Z,14.10
2022-08-17T02:56:11.656Z,13.25
2022-08-17T02:58:38.269Z,14.93
2022-08-17T03:01:07.474Z,13.70
2022-08-17T03:03:35.167Z,17.08
2022-08-17T03:06:02.105Z,18.55
2022-08-17T03:08:29.124Z,14.48
2022-08-17T03:10:56.431Z,16.35
2022-08-17T03:13:23.445Z,13.02
2022-08-17T03:15:50.636Z,12.85
2022-08-17T03:18:24.547Z,13.60
2022-08-17T03:20:57.244Z,16.20
2022-08-17T03:23:25.444Z,12.48
2022-08-17T03:25:53.962Z,14.60
2022-08-17T03:28:21.641Z,13.48
2022-08-17T03:30:48.563Z,13.30
2022-08-17T03:33:16.846Z,13.65
2022-08-17T03:35:43.554Z,14.05
2022-08-17T03:38:11.876Z,13.18
2022-08-17T03:40:56.259Z,11.93
2022-08-17T03:43:25.164Z,15.07
2022-08-17T03:46:27.312Z,12.85
2022-08-17T03:49:14.439Z,13.43
2022-08-17T03:51:59.400Z,13.52
2022-08-17T03:54:44.314Z,16.02
2022-08-17T03:57:12.510Z,14.25
2022-08-17T03:59:39.336Z,13.52
2022-08-17T04:02:11.394Z,11.93
2022-08-17T04:04:39.274Z,16.60
2022-08-17T04:07:06.917Z,16.90
2022-08-17T04:09:33.992Z,14.60
2022-08-17T04:12:02.325Z,16.42
2022-08-17T04:14:52.000Z,13.73
2022-08-17T04:17:26.199Z,13.82
2022-08-17T04:19:53.796Z,12.77
2022-08-17T04:22:32.375Z,14.02
2022-08-17T04:25:03.522Z,17.13
2022-08-17T04:27:30.040Z,14.93
2022-08-17T04:29:56.525Z,14.85
2022-08-17T04:32:59.294Z,14.35
2022-08-17T04:35:10.002Z,16.05
2022-08-17T04:37:36.590Z,16.85
2022-08-17T04:40:39.214Z,15.25
2022-08-17T04:43:18.840Z,14.48
2022-08-17T04:46:00.331Z,15.38
2022-08-17T04:48:36.499Z,16.25
2022-08-17T04:51:20.482Z,17.77
2022-08-17T04:53:54.062Z,16.40
2022-08-17T04:56:22.235Z,17.33
2022-08-17T04:58:50.819Z,16.38
2022-08-17T05:01:23.290Z,16.90
2022-08-17T05:03:52.150Z,18.08
2022-08-17T05:06:18.673Z,17.20
2022-08-17T05:08:45.215Z,21.42
2022-08-17T05:11:11.765Z,25.17
2022-08-17T05:13:38.314Z,22.17
2022-08-17T05:16:05.638Z,26.23
2022-08-17T05:18:32.647Z,25.83
2022-08-17T05:20:59.401Z,33.92
2022-08-17T05:23:42.098Z,33.60
2022-08-17T05:26:15.255Z,27.55
2022-08-17T05:28:54.993Z,37.17
2022-08-17T05:31:24.329Z,30.17
2022-08-17T05:33:50.926Z,38.72
2022-08-17T05:36:41.565Z,33.85
2022-08-17T05:39:04.241Z,28.25
2022-08-17T05:41:30.712Z,34.08
2022-08-17T05:43:57.272Z,27.65
2022-08-17T05:46:27.487Z,34.30
2022-08-17T05:49:02.318Z,25.75
2022-08-17T05:51:31.793Z,33.03
2022-08-17T05:56:43.939Z,28.95
2022-08-17T05:59:22.774Z,25.42
2022-08-17T06:02:02.815Z,26.80
2022-08-17T06:04:52.796Z,25.83
2022-08-17T06:07:31.778Z,21.20
2022-08-17T06:10:19.569Z,19.77
2022-08-17T06:13:07.942Z,18.98
2022-08-17T06:16:01.762Z,15.65
2022-08-17T06:18:41.767Z,14.70
2022-08-17T06:21:13.157Z,13.05
2022-08-17T06:23:45.131Z,12.13
2022-08-17T06:26:17.487Z,16.77
2022-08-17T06:29:00.339Z,11.15
2022-08-17T06:31:31.371Z,13.65
2022-08-17T06:34:00.199Z,14.43
2022-08-17T06:36:40.128Z,16.25
2022-08-17T06:39:19.938Z,9.27
2022-08-17T06:42:05.567Z,13.85
2022-08-17T06:44:43.492Z,14.50
2022-08-17T06:47:29.380Z,11.68
2022-08-17T06:50:05.607Z,12.52
2022-08-17T06:52:46.671Z,18.98
2022-08-17T06:55:26.406Z,11.60
2022-08-17T06:57:59.002Z,11.45
2022-08-17T07:00:36.835Z,8.82
2022-08-17T07:03:14.810Z,9.07
2022-08-17T07:05:46.456Z,8.07
2022-08-17T07:08:13.126Z,9.55
2022-08-17T07:10:51.058Z,9.52
2022-08-17T07:13:38.114Z,10.68
2022-08-17T07:16:14.659Z,10.07
2022-08-17T07:18:41.805Z,10.82
2022-08-17T07:21:25.844Z,9.38
2022-08-17T07:24:31.377Z,13.40
2022-08-17T07:27:16.449Z,9.50
2022-08-17T07:30:10.347Z,12.70
2022-08-17T07:32:45.226Z,11.52
2022-08-17T07:35:37.900Z,10.00
2022-08-17T07:38:24.957Z,8.25
2022-08-17T07:41:02.624Z,8.40
2022-08-17T07:43:41.616Z,8.68
2022-08-17T07:46:41.692Z,16.27
2022-08-17T07:49:11.184Z,12.20
2022-08-17T07:51:53.677Z,8.88
2022-08-17T07:54:28.756Z,7.57
2022-08-17T07:57:03.442Z,9.40
2022-08-17T07:59:36.075Z,9.18
2022-08-17T08:02:20.134Z,7.55
2022-08-17T08:05:01.456Z,11.02
2022-08-17T08:08:00.683Z,7.70
2022-08-17T08:10:38.068Z,9.50
2022-08-17T08:13:10.700Z,11.65
2022-08-17T08:15:54.336Z,10.93
2022-08-17T08:18:53.787Z,17.50
2022-08-17T08:21:33.821Z,10.00
2022-08-17T08:24:00.339Z,7.28
2022-08-17T08:26:55.359Z,7.63
2022-08-17T08:29:35.654Z,11.70
2022-08-17T08:32:18.190Z,9.38
2022-08-17T08:35:04.327Z,7.90
2022-08-17T08:37:37.893Z,9.65
2022-08-17T08:40:34.847Z,10.45
2022-08-17T08:43:02.311Z,22.27
2022-08-17T08:45:38.431Z,10.45
2022-08-17T08:48:53.333Z,11.48
2022-08-17T08:51:35.820Z,9.20
2022-08-17T08:54:34.539Z,10.05
2022-08-17T08:57:26.845Z,7.32
2022-08-17T09:00:17.152Z,5.72
2022-08-17T09:03:08.398Z,7.45
2022-08-17T09:05:50.082Z,6.40
2022-08-17T09:08:32.317Z,9.40
2022-08-17T09:11:18.199Z,5.55
2022-08-17T09:13:55.517Z,8.70
2022-08-17T09:16:29.664Z,9.07
2022-08-17T09:19:08.474Z,5.85
2022-08-17T09:21:48.786Z,6.75
2022-08-17T09:24:43.406Z,5.15
2022-08-17T09:27:26.698Z,6.18
2022-08-17T09:29:59.026Z,6.57
2022-08-17T09:32:38.279Z,6.07
2022-08-17T09:35:15.983Z,6.38
2022-08-17T09:38:05.209Z,6.70
2022-08-17T09:40:34.536Z,9.10
2022-08-17T09:43:10.029Z,8.07
2022-08-17T09:45:50.559Z,4.15
2022-08-17T09:48:38.473Z,6.07
2022-08-17T09:51:15.274Z,7.38
2022-08-17T09:53:44.541Z,7.90
2022-08-17T09:56:36.398Z,7.13
2022-08-17T09:59:20.086Z,6.80
2022-08-17T10:01:58.705Z,7.45
2022-08-17T10:04:40.817Z,5.35
2022-08-17T10:07:15.401Z,5.85
2022-08-17T10:10:03.941Z,8.15
2022-08-17T10:12:53.182Z,8.23
2022-08-17T10:15:40.813Z,7.40
2022-08-17T10:18:17.635Z,5.70
2022-08-17T10:21:21.501Z,5.28
2022-08-17T10:24:15.855Z,7.15
2022-08-17T10:26:57.057Z,6.40
2022-08-17T10:29:49.639Z,9.70
2022-08-17T10:32:32.148Z,7.35
2022-08-17T10:35:01.713Z,5.32
2022-08-17T10:37:46.568Z,5.32
2022-08-17T10:40:30.369Z,6.00
2022-08-17T10:43:19.188Z,7.40
2022-08-17T10:46:09.531Z,7.45
2022-08-17T10:49:18.144Z,5.35
2022-08-17T10:51:52.841Z,3.72
2022-08-17T10:54:25.004Z,4.25
2022-08-17T10:56:54.170Z,6.90
2022-08-17T10:59:35.716Z,4.93
2022-08-17T11:02:12.256Z,5.57
2022-08-17T11:04:47.884Z,6.57
2022-08-17T11:07:32.815Z,5.07
2022-08-17T11:10:08.407Z,3.72
2022-08-17T11:12:54.239Z,9.18
2022-08-17T11:15:47.362Z,5.20
2022-08-17T11:18:41.802Z,3.05
2022-08-17T11:21:15.170Z,5.03
2022-08-17T11:24:06.049Z,4.97
2022-08-17T11:26:35.809Z,4.65
2022-08-17T11:29:08.884Z,4.70
2022-08-17T11:31:40.129Z,5.38
2022-08-17T11:34:21.895Z,7.15
2022-08-17T11:37:19.584Z,5.18
2022-08-17T11:40:20.634Z,10.18
2022-08-17T11:42:58.988Z,4.32
2022-08-17T11:45:50.006Z,7.40
2022-08-17T11:48:48.062Z,8.38
2022-08-17T11:51:36.201Z,4.82
2022-08-17T11:54:31.728Z,4.87
2022-08-17T11:56:54.886Z,17.88
2022-08-17T11:59:33.311Z,12.75
2022-08-17T12:02:02.604Z,14.45
2022-08-17T12:04:34.782Z,14.68
2022-08-17T12:07:17.689Z,7.18
2022-08-17T12:09:48.594Z,8.73
2022-08-17T12:12:22.802Z,11.43
2022-08-17T12:15:11.007Z,10.05
2022-08-17T12:17:40.837Z,9.68
2022-08-17T12:20:21.390Z,11.00
2022-08-17T12:23:01.045Z,7.97
2022-08-17T12:25:40.306Z,6.68
2022-08-17T12:28:22.861Z,9.25
2022-08-17T12:30:52.030Z,11.73
2022-08-17T12:33:25.547Z,7.82
2022-08-17T12:36:08.627Z,8.30
2022-08-17T12:38:37.893Z,7.60
2022-08-17T12:44:03.924Z,10.65
2022-08-17T12:46:34.838Z,10.05
2022-08-17T12:49:30.054Z,11.98
2022-08-17T12:52:08.991Z,8.65
2022-08-17T12:54:47.563Z,8.75
2022-08-17T12:57:19.013Z,11.45
2022-08-17T12:59:50.520Z,9.85
2022-08-17T13:02:24.551Z,10.25
2022-08-17T13:04:51.346Z,10.50
2022-08-17T13:07:35.668Z,11.52
2022-08-17T13:10:03.997Z,12.13
2022-08-17T13:12:34.367Z,11.73
2022-08-17T13:15:01.536Z,7.03
2022-08-17T13:17:31.863Z,8.30
2022-08-17T13:19:58.929Z,7.15
2022-08-17T13:22:27.859Z,7.15
2022-08-17T13:24:58.310Z,9.40
2022-08-17T13:27:27.684Z,10.88
2022-08-17T13:30:00.479Z,9.18
2022-08-17T13:32:45.033Z,10.98
2022-08-17T13:35:40.578Z,8.93
2022-08-17T13:38:11.703Z,11.35
2022-08-17T13:40:52.230Z,11.93
2022-08-17T13:43:40.674Z,9.32
2022-08-17T13:46:11.561Z,13.73
2022-08-17T13:48:38.996Z,8.90
2022-08-17T13:51:14.158Z,8.32
2022-08-17T13:53:40.632Z,7.80
2022-08-17T13:56:37.249Z,6.95
2022-08-17T13:59:05.069Z,8.85
2022-08-17T14:01:36.088Z,7.97
2022-08-17T14:04:06.998Z,9.77
2022-08-17T14:06:52.915Z,9.02
2022-08-17T14:09:26.846Z,9.20
2022-08-17T14:11:55.535Z,9.80
2022-08-17T14:14:25.344Z,6.80
2022-08-17T14:16:53.758Z,10.93
2022-08-17T14:19:22.039Z,7.80
2022-08-17T14:21:49.699Z,7.70
2022-08-17T14:24:24.148Z,8.10
2022-08-17T14:26:52.950Z,8.55
2022-08-17T14:29:20.793Z,6.90
2022-08-17T14:31:53.287Z,11.93
2022-08-17T14:34:21.578Z,9.95
2022-08-17T14:36:48.873Z,5.18
2022-08-17T14:39:17.733Z,6.28
2022-08-17T14:41:44.670Z,7.40
2022-08-17T14:44:12.600Z,9.02
2022-08-17T14:46:40.892Z,8.90
2022-08-17T14:49:08.935Z,7.90
2022-08-17T14:51:43.580Z,4.78
2022-08-17T14:54:11.282Z,8.18
2022-08-17T14:56:38.603Z,7.22
2022-08-17T14:59:05.178Z,7.57
2022-08-17T15:01:31.890Z,12.43
2022-08-17T15:03:58.529Z,6.90
2022-08-17T15:06:25.024Z,5.65
2022-08-17T15:08:51.622Z,8.68
2022-08-17T15:11:18.316Z,5.63
2022-08-17T15:13:52.692Z,7.22
2022-08-17T15:16:20.405Z,4.05
2022-08-17T15:18:46.933Z,3.20
2022-08-17T15:21:14.842Z,7.20
2022-08-17T15:23:41.537Z,3.40
2022-08-17T15:26:10.797Z,4.47
2022-08-17T15:28:37.754Z,5.93
2022-08-17T15:31:05.690Z,5.82
2022-08-17T15:33:32.888Z,4.55
2022-08-17T15:36:02.874Z,4.30
2022-08-17T15:38:30.481Z,6.78
2022-08-17T15:40:58.384Z,2.80
2022-08-17T15:43:28.366Z,3.00
2022-08-17T15:46:18.634Z,4.80
2022-08-17T15:48:48.327Z,3.63
2022-08-17T15:51:27.433Z,6.82
2022-08-17T15:54:00.256Z,10.10
2022-08-17T15:56:31.682Z,4.72
2022-08-17T15:58:58.828Z,5.22
2022-08-17T16:01:57.406Z,6.80
2022-08-17T16:04:29.711Z,6.25
2022-08-17T16:06:57.911Z,3.08
2022-08-17T16:09:24.483Z,7.18
2022-08-17T16:11:55.332Z,4.30
2022-08-17T16:14:23.156Z,4.85
2022-08-17T16:16:51.049Z,2.80
2022-08-17T16:19:19.881Z,3.75
2022-08-17T16:21:46.499Z,5.93
2022-08-17T16:24:13.647Z,4.03
2022-08-17T16:26:42.202Z,5.28
2022-08-17T16:29:09.036Z,3.65
2022-08-17T16:31:38.790Z,3.92
2022-08-17T16:34:17.671Z,2.83
2022-08-17T16:36:55.636Z,3.85
2022-08-17T16:39:28.861Z,4.30
2022-08-17T16:41:56.550Z,4.85
2022-08-17T16:44:23.188Z,4.63
2022-08-17T16:46:50.345Z,6.20
2022-08-17T16:49:25.799Z,4.43
2022-08-17T16:52:06.343Z,5.72
2022-08-17T16:54:35.423Z,4.75
2022-08-17T16:57:04.874Z,6.20
2022-08-17T16:59:40.914Z,3.38
2022-08-17T17:04:51.917Z,5.65
2022-08-17T17:07:40.236Z,6.20
2022-08-17T17:10:15.585Z,6.82
2022-08-17T17:13:02.871Z,13.20
2022-08-17T17:15:47.234Z,16.75
2022-08-17T17:18:15.821Z,19.55
2022-08-17T17:20:54.566Z,17.75
2022-08-17T17:23:46.084Z,15.38
2022-08-17T17:26:39.645Z,16.30
2022-08-17T17:29:46.535Z,20.08
2022-08-17T17:32:24.679Z,24.73
2022-08-17T17:34:59.531Z,21.05
2022-08-17T17:37:34.104Z,20.98
2022-08-17T17:40:12.466Z,19.48
2022-08-17T17:42:42.162Z,27.40
2022-08-17T17:45:25.827Z,19.33
2022-08-17T17:47:53.481Z,24.92
2022-08-17T17:50:26.535Z,18.95
2022-08-17T17:53:04.039Z,16.73
2022-08-17T17:55:47.130Z,26.42
2022-08-17T17:58:42.578Z,17.52
2022-08-17T18:01:27.669Z,22.58
2022-08-17T18:04:20.516Z,21.52
2022-08-17T18:07:18.793Z,21.58
2022-08-17T18:10:29.350Z,22.67
2022-08-17T18:13:13.229Z,19.42
2022-08-17T18:15:52.132Z,17.85
2022-08-17T18:18:33.083Z,17.85
2022-08-17T18:21:06.848Z,19.52
2022-08-17T18:23:34.126Z,23.35
2022-08-17T18:26:02.000Z,22.60
2022-08-17T18:28:28.472Z,22.38
2022-08-17T18:31:04.081Z,23.67
2022-08-17T18:33:30.627Z,21.20
2022-08-17T18:35:58.755Z,28.48
2022-08-17T18:38:33.849Z,27.83
2022-08-17T18:41:25.887Z,23.08
2022-08-17T18:44:06.436Z,25.23
2022-08-17T18:46:37.755Z,24.05
2022-08-17T18:49:26.179Z,21.55
2022-08-17T18:52:16.190Z,24.30
2022-08-17T18:55:13.758Z,23.52
2022-08-17T18:57:46.872Z,21.35
2022-08-17T19:00:13.691Z,27.88
2022-08-17T19:02:58.756Z,23.13
2022-08-17T19:05:27.795Z,28.55
2022-08-17T19:07:54.852Z,24.02
2022-08-17T19:10:28.791Z,26.90
2022-08-17T19:13:00.718Z,22.98
2022-08-17T19:15:35.506Z,26.35
2022-08-17T19:18:34.698Z,23.15
2022-08-17T19:21:20.502Z,26.40
2022-08-17T19:23:53.377Z,26.02
2022-08-17T19:26:55.382Z,29.55
2022-08-17T19:29:16.607Z,34.33
2022-08-17T19:31:46.325Z,28.98
2022-08-17T19:34:17.582Z,27.90
2022-08-17T19:37:07.529Z,27.13
2022-08-17T19:40:02.133Z,25.75
2022-08-17T19:42:41.187Z,33.90
2022-08-17T19:45:19.362Z,36.88
2022-08-17T19:48:21.064Z,32.92
2022-08-17T19:51:01.328Z,37.58
2022-08-17T19:54:04.758Z,36.85
2022-08-17T19:56:47.676Z,32.53
2022-08-17T19:59:52.170Z,34.50
2022-08-17T20:02:31.411Z,31.65
2022-08-17T20:07:36.846Z,36.65
2022-08-17T20:10:11.048Z,36.63
2022-08-17T20:12:41.151Z,37.15
2022-08-17T20:15:38.950Z,36.38
2022-08-17T20:18:13.577Z,38.17
2022-08-17T20:20:55.949Z,35.00
2022-08-17T20:23:44.851Z,41.67
2022-08-17T20:26:34.341Z,40.10
2022-08-17T20:29:37.232Z,38.05
2022-08-17T20:32:17.984Z,39.13
2022-08-17T20:34:47.209Z,39.38
2022-08-17T20:37:13.608Z,41.10
2022-08-17T20:39:40.281Z,39.22
2022-08-17T20:42:22.565Z,41.97
2022-08-17T20:44:52.548Z,37.50
2022-08-17T20:47:27.475Z,33.33
2022-08-17T20:50:27.110Z,36.90
2022-08-17T20:52:57.959Z,36.83
2022-08-17T20:55:52.945Z,43.60
2022-08-17T20:58:23.190Z,40.00
2022-08-17T21:00:58.944Z,41.13
2022-08-17T21:03:32.253Z,44.03
2022-08-17T21:06:18.130Z,45.67
2022-08-17T21:09:18.861Z,43.08
2022-08-17T21:12:04.423Z,41.67
2022-08-17T21:14:40.913Z,45.88
2022-08-17T21:17:31.617Z,39.47
2022-08-17T21:20:27.418Z,41.13
2022-08-17T21:23:13.080Z,44.47
2022-08-17T21:25:57.892Z,43.03
2022-08-17T21:29:00.742Z,42.55
2022-08-17T21:31:40.011Z,51.83
2022-08-17T21:34:15.459Z,40.07
2022-08-17T21:36:43.844Z,49.08
2022-08-17T21:39:14.207Z,41.83
2022-08-17T21:41:52.694Z,46.10
2022-08-17T21:44:30.939Z,41.85
2022-08-17T21:47:13.890Z,46.30
2022-08-17T21:49:40.419Z,48.85
2022-08-17T21:52:07.465Z,50.22
2022-08-17T21:54:38.736Z,50.47
2022-08-17T21:57:14.809Z,44.45
2022-08-17T21:59:43.608Z,48.40
2022-08-17T22:02:22.646Z,53.10
2022-08-17T22:05:07.371Z,53.50
2022-08-17T22:07:53.071Z,54.67
2022-08-17T22:10:34.564Z,50.60
2022-08-17T22:13:16.881Z,52.53
2022-08-17T22:15:47.506Z,51.00
2022-08-17T22:18:22.900Z,51.58
2022-08-17T22:20:52.223Z,54.63
2022-08-17T22:27:00.199Z,50.97
2022-08-17T22:29:45.473Z,59.65
2022-08-17T22:32:31.118Z,52.03
2022-08-17T22:35:16.279Z,53.20
2022-08-17T22:37:42.896Z,52.88
2022-08-17T22:40:09.522Z,56.40
2022-08-17T22:42:47.378Z,52.13
2022-08-17T22:45:14.243Z,56.53
2022-08-17T22:47:48.446Z,56.63
2022-08-17T22:50:25.578Z,50.70
2022-08-17T22:53:20.129Z,53.58
2022-08-17T22:56:13.757Z,59.55
2022-08-17T22:59:15.900Z,58.92
2022-08-17T23:01:45.404Z,69.32
2022-08-17T23:04:36.742Z,63.22
2022-08-17T23:07:03.428Z,58.67
2022-08-17T23:09:29.909Z,49.83
2022-08-17T23:11:59.772Z,54.90
2022-08-17T23:14:31.648Z,57.85
2022-08-17T23:16:59.352Z,51.80
2022-08-17T23:19:27.284Z,50.00
2022-08-17T23:21:56.256Z,48.13
2022-08-17T23:24:26.924Z,50.45
2022-08-17T23:26:57.174Z,50.80
2022-08-17T23:29:24.831Z,46.05
2022-08-17T23:31:52.693Z,46.65
2022-08-17T23:34:19.569Z,51.72
2022-08-17T23:36:50.644Z,52.55
2022-08-17T23:39:24.697Z,53.35
2022-08-17T23:42:00.336Z,56.70
2022-08-17T23:44:28.773Z,52.70
2022-08-17T23:46:55.346Z,46.70
2022-08-17T23:49:23.454Z,46.17
2022-08-17T23:51:50.313Z,43.78
2022-08-17T23:54:28.763Z,53.88
2022-08-17T23:56:55.408Z,55.93
2022-08-17T23:59:23.116Z,51.50
